createdAt,value
2023-05-19T00:01:01.818Z,58.06
2023-05-19T00:03:31.811Z,57.59
2023-05-19T00:06:02.913Z,56.73
2023-05-19T00:08:32.511Z,56.52
2023-05-19T00:11:02.677Z,56.42
2023-05-19T00:13:31.037Z,56.61
2023-05-19T00:15:59.606Z,56.12
2023-05-19T00:18:29.901Z,56.56
2023-05-19T00:20:58.067Z,55.85
2023-05-19T00:23:26.247Z,56.44
2023-05-19T00:25:54.432Z,56.26
2023-05-19T00:28:23.885Z,55.93
2023-05-19T00:30:53.731Z,55.98
2023-05-19T00:33:21.790Z,56.18
2023-05-19T00:35:49.857Z,56.09
2023-05-19T00:38:17.969Z,56.57
2023-05-19T00:40:46.701Z,56.53
2023-05-19T00:43:14.840Z,56.10
2023-05-19T00:45:44.652Z,56.38
2023-05-19T00:48:12.780Z,56.07
2023-05-19T00:50:41.752Z,56.22
2023-05-19T00:53:09.878Z,56.04
2023-05-19T00:55:40.579Z,56.07
2023-05-19T00:58:11.144Z,55.87
2023-05-19T01:00:39.864Z,56.17
2023-05-19T01:03:11.837Z,56.71
2023-05-19T01:05:44.725Z,56.90
2023-05-19T01:08:12.975Z,57.39
2023-05-19T01:10:41.134Z,57.33
2023-05-19T01:13:09.693Z,57.15
2023-05-19T01:15:48.222Z,57.14
2023-05-19T01:18:26.049Z,57.28
2023-05-19T01:21:03.904Z,56.93
2023-05-19T01:23:40.405Z,57.33
2023-05-19T01:26:37.248Z,58.27
2023-05-19T01:29:37.411Z,57.78
2023-05-19T01:32:08.873Z,58.18
2023-05-19T01:34:43.287Z,58.72
2023-05-19T01:37:12.855Z,58.06
2023-05-19T01:39:41.656Z,57.92
2023-05-19T01:42:10.444Z,57.40
2023-05-19T01:44:39.269Z,56.70
2023-05-19T01:47:09.916Z,56.61
2023-05-19T01:49:38.129Z,55.92
2023-05-19T01:52:06.723Z,55.69
2023-05-19T01:54:34.929Z,55.16
2023-05-19T01:57:14.025Z,54.95
2023-05-19T01:59:47.455Z,54.64
2023-05-19T02:02:26.907Z,54.42
2023-05-19T02:05:01.258Z,54.15
2023-05-19T02:07:38.729Z,53.29
2023-05-19T02:10:11.844Z,53.27
2023-05-19T02:12:41.769Z,52.71
2023-05-19T02:15:15.356Z,51.86
2023-05-19T02:17:48.286Z,51.51
2023-05-19T02:20:36.710Z,51.34
2023-05-19T02:23:04.892Z,50.66
2023-05-19T02:25:32.969Z,50.81
2023-05-19T02:28:01.475Z,50.72
2023-05-19T02:30:32.163Z,50.27
2023-05-19T02:33:03.043Z,50.16
2023-05-19T02:35:31.166Z,49.14
2023-05-19T02:37:59.297Z,48.74
2023-05-19T02:40:27.379Z,47.73
2023-05-19T02:42:56.376Z,47.81
2023-05-19T02:45:24.390Z,46.15
2023-05-19T02:47:52.505Z,45.89
2023-05-19T02:50:22.590Z,45.94
2023-05-19T02:52:50.689Z,44.03
2023-05-19T02:55:18.767Z,42.52
2023-05-19T02:57:46.804Z,40.36
2023-05-19T03:00:16.051Z,39.56
2023-05-19T03:02:45.989Z,37.55
2023-05-19T03:05:14.337Z,37.41
2023-05-19T03:07:43.793Z,34.32
2023-05-19T03:10:12.032Z,31.99
2023-05-19T03:12:40.281Z,31.14
2023-05-19T03:15:09.227Z,29.75
2023-05-19T03:17:37.332Z,28.46
2023-05-19T03:20:06.354Z,26.35
2023-05-19T03:22:34.404Z,25.21
2023-05-19T03:25:04.312Z,24.20
2023-05-19T03:27:33.801Z,24.16
2023-05-19T03:30:02.752Z,22.70
2023-05-19T03:32:33.975Z,21.49
2023-05-19T03:35:02.759Z,20.84
2023-05-19T03:37:32.508Z,20.88
2023-05-19T03:40:00.927Z,20.28
2023-05-19T03:42:30.539Z,19.65
2023-05-19T03:44:58.691Z,18.97
2023-05-19T03:47:26.892Z,18.51
2023-05-19T03:50:05.220Z,18.40
2023-05-19T03:52:53.642Z,17.79
2023-05-19T03:55:30.676Z,18.44
2023-05-19T03:58:00.208Z,17.67
2023-05-19T04:00:28.329Z,16.69
2023-05-19T04:02:56.865Z,16.63
2023-05-19T04:05:25.644Z,16.60
2023-05-19T04:07:55.607Z,15.97
2023-05-19T04:10:25.305Z,16.15
2023-05-19T04:12:56.185Z,16.00
2023-05-19T04:15:26.426Z,16.11
2023-05-19T04:17:54.698Z,15.72
2023-05-19T04:20:22.840Z,15.77
2023-05-19T04:22:52.066Z,15.12
2023-05-19T04:25:21.138Z,14.88
2023-05-19T04:27:49.853Z,14.99
2023-05-19T04:30:29.432Z,14.98
2023-05-19T04:33:01.271Z,14.70
2023-05-19T04:35:29.656Z,14.89
2023-05-19T04:37:58.906Z,15.16
2023-05-19T04:40:31.519Z,14.90
2023-05-19T04:43:02.153Z,14.22
2023-05-19T04:45:33.138Z,14.88
2023-05-19T04:48:05.329Z,14.81
2023-05-19T04:50:34.391Z,14.34
2023-05-19T04:53:02.641Z,14.39
2023-05-19T04:55:31.055Z,14.04
2023-05-19T04:57:59.485Z,14.06
2023-05-19T05:00:28.381Z,13.50
2023-05-19T05:03:00.595Z,14.24
2023-05-19T05:05:32.907Z,13.21
2023-05-19T05:08:01.808Z,13.09
2023-05-19T05:10:34.052Z,13.35
2023-05-19T05:13:03.120Z,13.99
2023-05-19T05:15:32.087Z,12.96
2023-05-19T05:18:03.136Z,12.94
2023-05-19T05:20:34.186Z,12.33
2023-05-19T05:23:03.736Z,12.62
2023-05-19T05:25:33.977Z,12.61
2023-05-19T05:28:05.281Z,13.06
2023-05-19T05:30:36.184Z,13.13
2023-05-19T05:33:06.484Z,13.63
2023-05-19T05:35:39.936Z,14.42
2023-05-19T05:38:11.605Z,14.92
2023-05-19T05:40:40.761Z,15.01
2023-05-19T05:43:09.882Z,14.27
2023-05-19T05:45:43.964Z,13.95
2023-05-19T05:48:12.888Z,13.45
2023-05-19T05:50:44.796Z,13.54
2023-05-19T05:53:18.912Z,12.79
2023-05-19T05:55:49.308Z,12.44
2023-05-19T05:58:18.555Z,13.38
2023-05-19T06:00:48.644Z,14.76
2023-05-19T06:03:17.950Z,14.42
2023-05-19T06:05:47.711Z,14.20
2023-05-19T06:08:17.366Z,14.52
2023-05-19T06:10:47.369Z,14.31
2023-05-19T06:13:18.022Z,15.45
2023-05-19T06:15:47.695Z,14.21
2023-05-19T06:18:25.209Z,14.71
2023-05-19T06:20:55.718Z,14.44
2023-05-19T06:23:24.017Z,14.34
2023-05-19T06:25:52.343Z,14.85
2023-05-19T06:28:20.624Z,14.19
2023-05-19T06:30:48.880Z,13.31
2023-05-19T06:33:50.114Z,12.26
2023-05-19T06:36:19.694Z,12.12
2023-05-19T06:38:48.655Z,12.65
2023-05-19T06:41:17.270Z,12.24
2023-05-19T06:43:48.401Z,12.63
2023-05-19T06:46:17.847Z,12.74
2023-05-19T06:48:46.283Z,12.34
2023-05-19T06:51:15.702Z,12.50
2023-05-19T06:53:46.064Z,12.83
2023-05-19T06:56:15.035Z,12.88
2023-05-19T06:58:43.746Z,12.16
2023-05-19T07:01:12.757Z,12.14
2023-05-19T07:03:46.918Z,11.76
2023-05-19T07:06:16.340Z,12.46
2023-05-19T07:08:46.373Z,12.36
2023-05-19T07:11:14.865Z,13.42
2023-05-19T07:13:44.365Z,14.14
2023-05-19T07:16:13.403Z,13.42
2023-05-19T07:18:41.799Z,13.22
2023-05-19T07:21:11.814Z,12.28
2023-05-19T07:23:40.081Z,11.67
2023-05-19T07:26:09.573Z,12.12
2023-05-19T07:28:39.873Z,11.87
2023-05-19T07:31:10.300Z,11.98
2023-05-19T07:33:38.435Z,12.12
2023-05-19T07:36:06.729Z,11.87
2023-05-19T07:38:35.819Z,11.66
2023-05-19T07:41:04.487Z,11.58
2023-05-19T07:43:34.255Z,10.86
2023-05-19T07:46:02.496Z,11.15
2023-05-19T07:48:30.730Z,11.74
2023-05-19T07:50:58.939Z,11.28
2023-05-19T07:53:28.041Z,11.39
2023-05-19T07:55:58.407Z,10.66
2023-05-19T07:58:27.213Z,11.28
2023-05-19T08:00:58.505Z,11.59
2023-05-19T08:03:26.930Z,11.29
2023-05-19T08:05:55.153Z,11.30
2023-05-19T08:08:23.348Z,11.76
2023-05-19T08:10:51.482Z,11.93
2023-05-19T08:13:19.593Z,12.83
2023-05-19T08:15:47.948Z,13.09
2023-05-19T08:18:17.449Z,13.52
2023-05-19T08:20:46.409Z,13.88
2023-05-19T08:23:14.501Z,13.98
2023-05-19T08:25:42.545Z,14.15
2023-05-19T08:28:10.788Z,14.42
2023-05-19T08:30:39.033Z,15.43
2023-05-19T08:33:07.545Z,16.53
2023-05-19T08:35:37.318Z,16.98
2023-05-19T08:38:05.498Z,17.58
2023-05-19T08:40:36.132Z,19.42
2023-05-19T08:43:04.506Z,20.48
2023-05-19T08:45:34.744Z,21.18
2023-05-19T08:48:04.221Z,22.67
2023-05-19T08:50:36.436Z,23.43
2023-05-19T08:53:31.353Z,24.94
2023-05-19T08:56:10.216Z,25.12
2023-05-19T08:58:41.456Z,25.90
2023-05-19T09:01:10.051Z,26.19
2023-05-19T09:03:39.277Z,27.15
2023-05-19T09:06:08.914Z,27.66
2023-05-19T09:08:38.559Z,28.13
2023-05-19T09:11:07.646Z,28.34
2023-05-19T09:13:36.028Z,28.92
2023-05-19T09:16:04.462Z,29.44
2023-05-19T09:18:33.060Z,30.32
2023-05-19T09:21:02.778Z,30.58
2023-05-19T09:23:33.628Z,30.42
2023-05-19T09:26:07.256Z,31.40
2023-05-19T09:28:38.041Z,31.52
2023-05-19T09:31:07.837Z,32.21
2023-05-19T09:33:37.363Z,31.95
2023-05-19T09:36:08.338Z,32.35
2023-05-19T09:38:37.393Z,32.40
2023-05-19T09:41:08.019Z,32.41
2023-05-19T09:43:36.527Z,32.67
2023-05-19T09:46:06.829Z,32.60
2023-05-19T09:48:36.553Z,33.04
2023-05-19T09:51:06.481Z,33.18
2023-05-19T09:53:35.524Z,33.29
2023-05-19T09:56:03.981Z,33.26
2023-05-19T09:58:36.528Z,33.72
2023-05-19T10:01:06.103Z,34.24
2023-05-19T10:03:35.480Z,33.77
2023-05-19T10:06:05.519Z,33.24
2023-05-19T10:08:36.037Z,33.31
2023-05-19T10:11:04.695Z,33.36
2023-05-19T10:13:38.718Z,33.65
2023-05-19T10:16:07.885Z,33.69
2023-05-19T10:18:37.556Z,34.12
2023-05-19T10:21:09.475Z,34.31
2023-05-19T10:23:37.804Z,34.67
2023-05-19T10:26:07.718Z,34.85
2023-05-19T10:28:40.555Z,34.31
2023-05-19T10:31:12.417Z,34.84
2023-05-19T10:33:58.064Z,34.45
2023-05-19T10:36:45.453Z,35.51
2023-05-19T10:39:19.074Z,35.27
2023-05-19T10:42:02.412Z,35.97
2023-05-19T10:44:47.628Z,36.47
2023-05-19T10:47:16.030Z,35.65
2023-05-19T10:49:44.099Z,35.69
2023-05-19T10:52:23.170Z,35.89
2023-05-19T10:54:54.460Z,36.09
2023-05-19T10:57:28.149Z,36.01
2023-05-19T10:59:58.141Z,35.58
2023-05-19T11:02:47.564Z,35.71
2023-05-19T11:05:19.541Z,35.57
2023-05-19T11:07:57.450Z,35.63
2023-05-19T11:10:25.551Z,35.90
2023-05-19T11:12:53.732Z,36.30
2023-05-19T11:15:27.512Z,36.60
2023-05-19T11:17:56.158Z,36.39
2023-05-19T11:20:25.395Z,37.15
2023-05-19T11:23:07.222Z,38.12
2023-05-19T11:25:46.996Z,38.21
2023-05-19T11:28:17.660Z,38.44
2023-05-19T11:30:50.637Z,38.37
2023-05-19T11:33:20.369Z,38.78
2023-05-19T11:35:49.890Z,38.96
2023-05-19T11:38:18.338Z,39.08
2023-05-19T11:40:47.755Z,40.33
2023-05-19T11:43:16.323Z,40.80
2023-05-19T11:45:44.449Z,40.34
2023-05-19T11:48:15.956Z,41.40
2023-05-19T11:50:45.016Z,40.81
2023-05-19T11:53:14.202Z,41.77
2023-05-19T11:55:47.132Z,42.18
2023-05-19T11:58:16.029Z,41.55
2023-05-19T12:00:47.749Z,41.50
2023-05-19T12:03:22.880Z,42.21
2023-05-19T12:05:51.451Z,41.87
2023-05-19T12:08:19.720Z,41.91
2023-05-19T12:10:49.889Z,42.45
2023-05-19T12:13:18.093Z,41.72
2023-05-19T12:15:46.192Z,42.24
2023-05-19T12:18:14.401Z,42.82
2023-05-19T12:20:44.516Z,42.70
2023-05-19T12:23:13.530Z,42.27
2023-05-19T12:25:41.701Z,43.20
2023-05-19T12:28:09.787Z,42.77
2023-05-19T12:30:38.337Z,42.04
2023-05-19T12:33:06.749Z,41.96
2023-05-19T12:35:36.320Z,42.41
2023-05-19T12:38:07.749Z,42.91
2023-05-19T12:40:37.350Z,43.00
2023-05-19T12:43:07.890Z,42.83
2023-05-19T12:45:37.008Z,43.06
2023-05-19T12:48:06.714Z,43.09
2023-05-19T12:50:35.356Z,42.62
2023-05-19T12:53:03.669Z,43.11
2023-05-19T12:55:39.485Z,43.44
2023-05-19T12:58:08.714Z,43.29
2023-05-19T13:00:42.539Z,43.24
2023-05-19T13:03:18.391Z,43.41
2023-05-19T13:05:48.037Z,43.04
2023-05-19T13:08:18.147Z,43.22
2023-05-19T13:10:49.257Z,43.17
2023-05-19T13:13:18.011Z,42.92
2023-05-19T13:15:48.949Z,42.82
2023-05-19T13:18:17.826Z,42.49
2023-05-19T13:20:49.210Z,42.68
2023-05-19T13:23:18.612Z,42.94
2023-05-19T13:25:48.170Z,42.45
2023-05-19T13:28:16.343Z,41.46
2023-05-19T13:30:45.802Z,41.99
2023-05-19T13:33:14.077Z,42.56
2023-05-19T13:35:42.250Z,42.60
2023-05-19T13:38:11.302Z,42.34
2023-05-19T13:40:39.814Z,42.45
2023-05-19T13:43:09.728Z,42.20
2023-05-19T13:45:38.136Z,42.27
2023-05-19T13:48:07.446Z,42.24
2023-05-19T13:50:35.808Z,42.38
2023-05-19T13:53:03.910Z,42.87
2023-05-19T13:55:32.195Z,42.72
2023-05-19T13:58:00.301Z,42.52
2023-05-19T14:00:31.671Z,42.43
2023-05-19T14:03:00.728Z,42.86
2023-05-19T14:05:29.293Z,43.00
2023-05-19T14:07:58.222Z,43.41
2023-05-19T14:10:26.523Z,43.35
2023-05-19T14:13:29.077Z,43.54
2023-05-19T14:15:44.683Z,43.23
2023-05-19T14:18:12.854Z,43.30
2023-05-19T14:20:40.926Z,43.76
2023-05-19T14:23:09.101Z,43.57
2023-05-19T14:25:37.179Z,43.20
2023-05-19T14:28:05.492Z,44.61
2023-05-19T14:30:34.064Z,44.88
2023-05-19T14:33:03.906Z,44.90
2023-05-19T14:35:31.984Z,44.83
2023-05-19T14:38:00.086Z,44.85
2023-05-19T14:40:28.189Z,44.96
2023-05-19T14:42:56.270Z,45.09
2023-05-19T14:45:24.437Z,45.17
2023-05-19T14:47:52.762Z,44.79
2023-05-19T14:50:22.630Z,45.48
2023-05-19T14:52:50.872Z,45.88
2023-05-19T14:55:19.113Z,45.86
2023-05-19T14:57:48.527Z,45.67
2023-05-19T15:00:16.965Z,45.90
2023-05-19T15:02:45.254Z,45.64
2023-05-19T15:05:13.441Z,46.39
2023-05-19T15:07:42.920Z,46.60
2023-05-19T15:10:11.354Z,47.03
2023-05-19T15:12:39.571Z,47.09
2023-05-19T15:15:08.855Z,47.48
2023-05-19T15:17:37.024Z,47.34
2023-05-19T15:20:05.734Z,47.18
2023-05-19T15:22:34.167Z,47.57
2023-05-19T15:25:03.737Z,47.44
2023-05-19T15:27:31.961Z,47.81
2023-05-19T15:30:00.054Z,48.20
2023-05-19T15:32:28.295Z,47.89
2023-05-19T15:34:56.359Z,48.48
2023-05-19T15:37:24.721Z,48.42
2023-05-19T15:39:53.048Z,48.56
2023-05-19T15:42:22.874Z,48.61
2023-05-19T15:44:51.066Z,48.34
2023-05-19T15:47:19.129Z,48.28
2023-05-19T15:49:47.800Z,48.97
2023-05-19T15:52:15.981Z,48.92
2023-05-19T15:54:44.290Z,48.86
2023-05-19T15:57:13.576Z,48.83
2023-05-19T15:59:43.089Z,48.60
2023-05-19T16:02:12.737Z,48.40
2023-05-19T16:04:41.024Z,48.48
2023-05-19T16:07:09.158Z,48.31
2023-05-19T16:09:37.353Z,48.06
2023-05-19T16:12:06.718Z,48.29
2023-05-19T16:14:36.734Z,48.65
2023-05-19T16:17:11.443Z,48.86
2023-05-19T16:19:39.748Z,49.05
2023-05-19T16:22:07.829Z,48.99
2023-05-19T16:24:35.870Z,48.85
2023-05-19T16:27:04.949Z,48.85
2023-05-19T16:29:33.105Z,49.01
2023-05-19T16:32:01.356Z,49.18
2023-05-19T16:34:30.838Z,49.25
2023-05-19T16:36:59.005Z,49.49
2023-05-19T16:39:27.149Z,49.49
2023-05-19T16:41:55.429Z,49.21
2023-05-19T16:44:24.651Z,49.01
2023-05-19T16:46:52.697Z,48.69
2023-05-19T16:49:20.947Z,48.90
2023-05-19T16:51:50.443Z,49.04
2023-05-19T16:54:18.777Z,48.95
2023-05-19T16:56:47.325Z,49.09
2023-05-19T16:59:15.408Z,49.27
2023-05-19T17:01:43.533Z,49.13
2023-05-19T17:04:11.767Z,49.10
2023-05-19T17:06:39.930Z,49.36
2023-05-19T17:09:09.505Z,49.32
2023-05-19T17:11:37.558Z,49.57
2023-05-19T17:14:08.096Z,49.59
2023-05-19T17:16:36.314Z,49.48
2023-05-19T17:19:04.671Z,50.01
2023-05-19T17:21:32.788Z,50.20
2023-05-19T17:24:01.050Z,49.68
2023-05-19T17:26:30.531Z,49.68
2023-05-19T17:28:58.614Z,49.46
2023-05-19T17:31:26.773Z,49.80
2023-05-19T17:33:55.164Z,49.66
2023-05-19T17:36:23.399Z,49.05
2023-05-19T17:38:51.510Z,49.18
2023-05-19T17:41:19.626Z,49.64
2023-05-19T17:43:49.500Z,49.19
2023-05-19T17:46:17.797Z,48.67
2023-05-19T17:48:45.926Z,49.18
2023-05-19T17:51:13.995Z,48.77
2023-05-19T17:53:43.011Z,49.52
2023-05-19T17:56:13.132Z,49.60
2023-05-19T17:58:41.747Z,49.32
2023-05-19T18:01:11.734Z,49.85
2023-05-19T18:03:40.454Z,49.52
2023-05-19T18:06:09.038Z,49.93
2023-05-19T18:08:38.700Z,49.50
2023-05-19T18:11:07.117Z,49.51
2023-05-19T18:13:35.827Z,49.78
2023-05-19T18:16:04.061Z,50.02
2023-05-19T18:18:34.739Z,49.65
2023-05-19T18:21:03.142Z,50.57
2023-05-19T18:23:31.629Z,51.21
2023-05-19T18:26:00.233Z,51.32
2023-05-19T18:28:29.737Z,50.98
2023-05-19T18:31:01.715Z,51.80
2023-05-19T18:33:31.315Z,52.32
2023-05-19T18:36:01.694Z,52.06
2023-05-19T18:38:30.193Z,52.22
2023-05-19T18:41:00.757Z,52.09
2023-05-19T18:43:30.155Z,52.03
2023-05-19T18:45:58.598Z,52.64
2023-05-19T18:48:27.123Z,52.38
2023-05-19T18:50:55.406Z,52.56
2023-05-19T18:53:24.878Z,51.97
2023-05-19T18:55:52.959Z,52.10
2023-05-19T18:58:21.673Z,52.66
2023-05-19T19:00:50.433Z,52.18
2023-05-19T19:03:18.577Z,52.33
2023-05-19T19:05:46.695Z,51.87
2023-05-19T19:08:14.823Z,52.68
2023-05-19T19:10:44.890Z,53.68
2023-05-19T19:13:12.962Z,52.86
2023-05-19T19:15:41.210Z,52.44
2023-05-19T19:18:09.361Z,53.35
2023-05-19T19:20:37.490Z,53.37
2023-05-19T19:23:06.727Z,53.43
2023-05-19T19:25:35.035Z,54.04
2023-05-19T19:28:04.779Z,53.61
2023-05-19T19:30:33.160Z,53.44
2023-05-19T19:33:01.370Z,53.33
2023-05-19T19:35:29.579Z,54.23
2023-05-19T19:37:58.506Z,54.56
2023-05-19T19:40:26.776Z,54.37
2023-05-19T19:42:55.201Z,54.52
2023-05-19T19:45:24.769Z,56.17
2023-05-19T19:47:52.983Z,55.69
2023-05-19T19:50:22.132Z,55.67
2023-05-19T19:52:50.613Z,55.50
2023-05-19T19:55:18.899Z,55.69
2023-05-19T19:57:49.581Z,56.40
2023-05-19T20:00:18.534Z,56.35
2023-05-19T20:03:03.495Z,57.26
2023-05-19T20:05:33.373Z,57.58
2023-05-19T20:08:01.546Z,57.29
2023-05-19T20:10:29.615Z,57.48
2023-05-19T20:12:58.892Z,57.72
2023-05-19T20:15:27.207Z,58.63
2023-05-19T20:17:56.667Z,57.68
2023-05-19T20:20:24.761Z,58.39
2023-05-19T20:22:52.909Z,58.33
2023-05-19T20:25:21.114Z,57.54
2023-05-19T20:27:49.230Z,58.45
2023-05-19T20:30:17.471Z,57.95
2023-05-19T20:32:46.951Z,58.54
2023-05-19T20:35:20.478Z,58.44
2023-05-19T20:37:49.474Z,58.81
2023-05-19T20:40:18.753Z,58.33
2023-05-19T20:42:47.338Z,59.23
2023-05-19T20:45:16.630Z,59.48
2023-05-19T20:47:44.830Z,59.40
2023-05-19T20:50:12.997Z,59.98
2023-05-19T20:52:42.466Z,60.05
2023-05-19T20:55:10.728Z,60.33
2023-05-19T20:57:39.138Z,59.70
2023-05-19T21:00:09.123Z,59.77
2023-05-19T21:02:37.681Z,59.79
2023-05-19T21:05:06.608Z,59.30
2023-05-19T21:07:35.022Z,59.38
2023-05-19T21:10:04.480Z,60.13
2023-05-19T21:12:34.240Z,60.08
2023-05-19T21:15:03.724Z,59.26
2023-05-19T21:17:31.913Z,60.36
2023-05-19T21:20:00.622Z,59.52
2023-05-19T21:22:28.957Z,59.16
2023-05-19T21:24:57.047Z,58.99
2023-05-19T21:27:26.535Z,59.41
2023-05-19T21:29:55.080Z,59.42
2023-05-19T21:32:23.185Z,58.96
2023-05-19T21:34:51.380Z,59.05
2023-05-19T21:37:20.355Z,58.90
2023-05-19T21:39:48.846Z,58.93
2023-05-19T21:42:16.939Z,59.17
2023-05-19T21:44:46.565Z,58.64
2023-05-19T21:47:15.304Z,58.88
2023-05-19T21:49:43.472Z,59.13
2023-05-19T21:52:11.564Z,58.99
2023-05-19T21:54:39.612Z,58.98
2023-05-19T21:57:07.736Z,58.96
2023-05-19T21:59:35.743Z,59.35
2023-05-19T22:02:05.878Z,59.16
2023-05-19T22:04:34.041Z,59.55
2023-05-19T22:07:02.089Z,58.83
2023-05-19T22:09:30.317Z,59.11
2023-05-19T22:11:58.343Z,59.13
2023-05-19T22:14:26.425Z,58.92
2023-05-19T22:16:54.592Z,59.10
2023-05-19T22:19:24.102Z,59.71
2023-05-19T22:22:02.003Z,59.21
2023-05-19T22:24:38.293Z,59.49
2023-05-19T22:27:08.733Z,58.77
2023-05-19T22:29:38.427Z,59.75
2023-05-19T22:32:07.705Z,59.53
2023-05-19T22:34:37.097Z,59.63
2023-05-19T22:37:05.718Z,60.04
2023-05-19T22:39:33.769Z,59.94
2023-05-19T22:42:02.632Z,59.67
2023-05-19T22:44:30.738Z,59.51
2023-05-19T22:46:58.895Z,59.82
2023-05-19T22:49:27.461Z,59.58
2023-05-19T22:51:57.016Z,60.59
2023-05-19T22:54:25.103Z,60.78
2023-05-19T22:56:53.090Z,60.13
2023-05-19T22:59:21.645Z,59.96
2023-05-19T23:01:49.608Z,60.36
2023-05-19T23:04:17.624Z,61.14
2023-05-19T23:06:47.197Z,61.20
2023-05-19T23:09:17.999Z,61.06
2023-05-19T23:11:46.377Z,60.94
2023-05-19T23:14:14.668Z,60.59
2023-05-19T23:16:42.716Z,61.06
2023-05-19T23:19:10.911Z,61.04
2023-05-19T23:21:39.992Z,61.40
2023-05-19T23:24:07.995Z,61.58
2023-05-19T23:26:37.895Z,61.57
2023-05-19T23:29:05.972Z,61.69
2023-05-19T23:31:34.881Z,61.91
2023-05-19T23:34:04.220Z,61.87
2023-05-19T23:36:32.337Z,61.91
2023-05-19T23:39:01.161Z,62.31
2023-05-19T23:41:29.281Z,61.88
2023-05-19T23:43:58.643Z,61.57
2023-05-19T23:46:26.843Z,62.68
2023-05-19T23:48:55.054Z,62.49
2023-05-19T23:51:23.124Z,62.26
2023-05-19T23:53:51.323Z,62.20
2023-05-19T23:56:19.431Z,62.18
2023-05-19T23:58:47.432Z,62.43
